Time;durP1;ratioP1;P1;durP2;ratioP2;P2;SDS_P1;SDS_P2;PMS_P1;PMS_P2;Temp;Humidity;BMP_temperature;BMP_pressure;BME280_temperature;BME280_humidity;BME280_pressure;Samples;Min_cycle;Max_cycle;Signal;HPM_P1;HPM_P2
2023/01/15 00:01:56;;;;;;;1.10;1.10;;;;;;;16.19;49.39;97582.97;6952832;28;20295;-81
2023/01/15 00:05:17;;;;;;;2.40;2.20;;;;;;;15.45;51.12;97583.59;6951988;28;20228;-81
2023/01/15 00:08:40;;;;;;;1.20;1.20;;;;;;;15.71;51.50;97605.16;6951950;28;20214;-80
2023/01/15 00:12:01;;;;;;;1.37;1.27;;;;;;;15.69;51.58;97576.63;6951843;28;20365;-81
2023/01/15 00:15:23;;;;;;;1.30;1.30;;;;;;;15.45;51.72;97551.78;6952008;28;20200;-81
2023/01/15 00:18:49;;;;;;;1.20;1.20;;;;;;;15.67;51.41;97570.59;6953079;28;20256;-80
2023/01/15 00:22:12;;;;;;;1.10;1.10;;;;;;;16.18;50.51;97572.34;6951037;28;20831;-81
2023/01/15 00:29:14;;;;;;;1.00;1.00;;;;;;;16.07;50.49;97554.41;6952887;28;20190;-80
2023/01/15 00:32:36;;;;;;;1.10;1.10;;;;;;;15.57;51.98;97552.38;6953520;28;20273;-81
2023/01/15 00:35:57;;;;;;;1.10;1.10;;;;;;;16.01;50.41;97533.72;6952003;28;20273;-80
2023/01/15 00:39:19;;;;;;;1.00;1.00;;;;;;;16.09;50.81;97542.16;6952993;28;20255;-80
2023/01/15 00:42:42;;;;;;;1.00;1.00;;;;;;;16.53;49.46;97556.09;6954015;28;20618;-80
2023/01/15 00:46:04;;;;;;;1.00;1.00;;;;;;;16.68;49.21;97551.44;6953935;28;20292;-80
2023/01/15 00:49:25;;;;;;;1.33;1.23;;;;;;;16.31;49.40;97537.28;6954764;28;20204;-80
2023/01/15 00:52:47;;;;;;;1.10;1.10;;;;;;;16.38;49.53;97520.69;6954126;28;20303;-79
2023/01/15 00:56:08;;;;;;;1.20;1.20;;;;;;;15.98;50.33;97518.78;6953568;28;20303;-80
2023/01/15 00:59:31;;;;;;;1.10;1.10;;;;;;;15.90;50.73;97507.63;6955901;28;20295;-80
2023/01/15 01:02:53;;;;;;;1.03;1.03;;;;;;;15.93;50.17;97499.72;6957451;28;20210;-80
2023/01/15 01:06:15;;;;;;;1.27;1.00;;;;;;;16.29;49.46;97498.66;6957072;28;20286;-80
2023/01/15 01:09:37;;;;;;;1.10;1.10;;;;;;;16.19;50.01;97506.84;6957972;28;20212;-80
2023/01/15 01:12:58;;;;;;;1.33;0.90;;;;;;;15.84;50.78;97503.25;6958540;28;20271;-80
2023/01/15 01:16:24;;;;;;;1.03;1.03;;;;;;;16.43;48.85;97480.72;6950457;28;20312;-80
2023/01/15 01:19:46;;;;;;;0.80;0.80;;;;;;;15.79;50.23;97482.34;6950996;28;20216;-80
2023/01/15 01:23:07;;;;;;;0.90;0.90;;;;;;;16.31;49.13;97479.34;6949697;28;20342;-81
2023/01/15 01:26:29;;;;;;;0.90;0.90;;;;;;;17.04;47.11;97475.97;6950862;28;20233;-80
2023/01/15 01:29:51;;;;;;;1.03;1.03;;;;;;;16.69;48.18;97484.22;6952078;28;20279;-80
2023/01/15 01:33:13;;;;;;;1.80;1.10;;;;;;;16.43;48.39;97439.94;6952280;28;20748;-80
2023/01/15 01:36:36;;;;;;;1.00;1.00;;;;;;;16.30;49.20;97458.69;6951844;28;20320;-80
2023/01/15 01:39:58;;;;;;;1.20;1.10;;;;;;;16.77;48.36;97484.47;6955476;28;20300;-81
2023/01/15 01:43:22;;;;;;;1.10;1.00;;;;;;;16.91;47.96;97496.41;6954841;28;20240;-80
2023/01/15 01:46:43;;;;;;;0.80;0.80;;;;;;;16.19;50.46;97497.84;6949770;28;20378;-80
2023/01/15 01:50:10;;;;;;;0.90;0.90;;;;;;;16.17;50.43;97461.97;6947794;28;20357;-80
2023/01/15 01:53:32;;;;;;;0.80;0.80;;;;;;;16.83;48.89;97464.31;6946654;28;20333;-80
2023/01/15 01:56:54;;;;;;;1.20;1.10;;;;;;;16.77;49.34;97480.94;6946015;28;20316;-81
2023/01/15 02:00:15;;;;;;;0.77;0.77;;;;;;;16.39;50.37;97465.25;6947130;28;20301;-81
2023/01/15 02:03:38;;;;;;;0.90;0.90;;;;;;;16.38;50.26;97469.00;6946945;28;20243;-81
2023/01/15 02:07:01;;;;;;;0.90;0.90;;;;;;;16.22;50.84;97462.75;6945933;28;20961;-81
2023/01/15 02:10:23;;;;;;;0.80;0.80;;;;;;;16.47;50.52;97446.47;6947033;28;20343;-81
2023/01/15 02:13:49;;;;;;;0.90;0.90;;;;;;;15.78;52.03;97420.91;6946958;28;20221;-80
2023/01/15 02:17:15;;;;;;;0.87;0.80;;;;;;;16.11;51.41;97433.94;6950693;28;20323;-80
2023/01/15 02:20:40;;;;;;;0.90;0.90;;;;;;;15.90;51.47;97423.34;6950299;28;20199;-81
2023/01/15 02:24:11;;;;;;;1.00;1.00;;;;;;;16.48;50.74;97436.38;6950715;28;20273;-80
2023/01/15 02:27:34;;;;;;;0.80;0.80;;;;;;;16.62;50.12;97429.25;6950465;28;20231;-81
2023/01/15 02:31:01;;;;;;;1.03;1.03;;;;;;;15.99;51.96;97433.41;6950787;28;20266;-80
2023/01/15 02:34:26;;;;;;;0.90;0.90;;;;;;;15.91;52.23;97433.97;6950082;28;20367;-80
2023/01/15 02:37:51;;;;;;;0.80;0.80;;;;;;;16.41;50.68;97409.47;6950710;28;20227;-81
2023/01/15 02:41:16;;;;;;;0.97;0.97;;;;;;;16.75;50.26;97413.16;6951219;28;20268;-81
2023/01/15 02:44:42;;;;;;;1.00;1.00;;;;;;;16.61;50.42;97425.72;6949934;28;20226;-81
2023/01/15 02:48:07;;;;;;;1.00;1.00;;;;;;;16.10;51.58;97412.47;6950103;28;20376;-80
2023/01/15 02:51:33;;;;;;;0.90;0.90;;;;;;;16.24;51.59;97419.81;6971272;28;20226;-80
2023/01/15 02:54:58;;;;;;;0.90;0.90;;;;;;;16.10;52.09;97429.59;6977151;28;20282;-80
2023/01/15 02:58:22;;;;;;;0.87;0.87;;;;;;;15.86;52.25;97408.69;6978101;28;20315;-80
2023/01/15 03:01:49;;;;;;;1.27;1.17;;;;;;;16.01;52.18;97408.69;6978023;28;20289;-81
2023/01/15 03:05:13;;;;;;;1.10;1.10;;;;;;;16.66;50.58;97419.44;6977131;28;20327;-81
2023/01/15 03:08:35;;;;;;;0.90;0.90;;;;;;;16.48;51.24;97412.72;6978103;28;20388;-80
2023/01/15 03:12:02;;;;;;;2.10;1.73;;;;;;;16.34;51.58;97394.50;6977774;28;20642;-81
2023/01/15 03:19:08;;;;;;;1.00;1.00;;;;;;;16.54;51.67;97395.28;6987186;28;20202;-80
2023/01/15 03:22:32;;;;;;;0.87;0.87;;;;;;;16.85;51.31;97404.97;6982001;28;20343;-80
2023/01/15 03:25:54;;;;;;;0.80;0.80;;;;;;;16.99;50.64;97391.56;6982336;28;20397;-80
2023/01/15 03:29:15;;;;;;;0.90;0.90;;;;;;;17.23;49.82;97390.59;6981724;28;20212;-80
2023/01/15 03:32:37;;;;;;;0.80;0.80;;;;;;;16.44;51.77;97387.16;6980537;28;20303;-80
2023/01/15 03:36:01;;;;;;;0.80;0.80;;;;;;;16.68;51.47;97379.19;6976329;28;20723;-80
2023/01/15 03:39:22;;;;;;;0.77;0.77;;;;;;;17.17;50.25;97380.81;6977185;28;20217;-80
2023/01/15 03:42:48;;;;;;;1.00;1.00;;;;;;;16.85;50.47;97355.97;6976727;28;20304;-80
2023/01/15 03:46:29;;;;;;;0.70;0.70;;;;;;;16.79;50.96;97365.25;6976028;28;20269;-80
2023/01/15 03:49:57;;;;;;;1.00;1.00;;;;;;;16.28;52.12;97339.28;6976075;28;20351;-80
2023/01/15 03:53:21;;;;;;;0.90;0.90;;;;;;;16.42;52.65;97370.28;6976936;28;20199;-81
2023/01/15 03:56:54;;;;;;;0.80;0.80;;;;;;;16.63;52.07;97374.56;6975896;28;20308;-80
2023/01/15 04:00:19;;;;;;;1.00;1.00;;;;;;;16.15;52.28;97331.72;6975838;28;20257;-80
2023/01/15 04:03:41;;;;;;;0.90;0.90;;;;;;;16.52;52.06;97343.03;6976344;28;20663;-81
2023/01/15 04:07:03;;;;;;;0.80;0.80;;;;;;;16.66;52.34;97368.56;6975676;28;20321;-80
2023/01/15 04:10:27;;;;;;;0.80;0.80;;;;;;;16.19;52.60;97315.66;6976776;28;20275;-80
2023/01/15 04:13:48;;;;;;;1.00;1.00;;;;;;;16.26;52.80;97305.28;6975312;28;20283;-80
2023/01/15 04:17:10;;;;;;;0.70;0.70;;;;;;;16.61;52.71;97346.81;6974907;28;20311;-80
2023/01/15 04:20:31;;;;;;;1.00;1.00;;;;;;;16.29;53.20;97337.38;6974108;28;20291;-80
2023/01/15 04:23:53;;;;;;;1.00;1.00;;;;;;;16.34;53.54;97338.19;6975057;28;20271;-80
2023/01/15 04:27:15;;;;;;;1.03;1.00;;;;;;;16.34;53.08;97346.34;6974448;28;20828;-80
2023/01/15 04:30:37;;;;;;;0.90;0.90;;;;;;;16.28;53.67;97335.75;6974866;28;20293;-80
2023/01/15 04:33:58;;;;;;;0.70;0.70;;;;;;;16.16;53.76;97330.59;6974648;28;20691;-80
2023/01/15 04:37:20;;;;;;;0.80;0.80;;;;;;;16.08;54.28;97327.63;6973633;28;20285;-80
2023/01/15 04:44:26;;;;;;;0.80;0.80;;;;;;;15.98;54.66;97322.25;6974566;28;20268;-80
2023/01/15 04:47:47;;;;;;;1.40;1.30;;;;;;;16.13;53.68;97304.00;6974110;28;20294;-80
2023/01/15 04:51:09;;;;;;;1.23;1.17;;;;;;;16.22;54.12;97318.63;6968850;28;20205;-80
2023/01/15 04:54:30;;;;;;;0.83;0.83;;;;;;;16.28;53.59;97293.03;6973529;28;20267;-81
2023/01/15 04:57:52;;;;;;;0.90;0.90;;;;;;;15.84;54.68;97299.44;6974102;28;20292;-80
2023/01/15 05:01:18;;;;;;;0.80;0.80;;;;;;;16.33;53.89;97331.09;6974218;28;20262;-80
2023/01/15 05:04:39;;;;;;;1.20;1.20;;;;;;;16.11;54.77;97316.22;6973304;28;20335;-80
2023/01/15 05:08:00;;;;;;;0.80;0.80;;;;;;;16.10;54.81;97304.53;6973835;28;20439;-80
2023/01/15 05:11:22;;;;;;;0.90;0.90;;;;;;;16.14;54.68;97312.94;6973345;28;20355;-79
2023/01/15 05:14:43;;;;;;;1.00;1.00;;;;;;;16.00;55.01;97322.78;6973633;28;20229;-79
2023/01/15 05:18:06;;;;;;;2.00;0.93;;;;;;;16.09;54.49;97308.34;6973726;28;20289;-79
2023/01/15 05:21:30;;;;;;;1.43;1.37;;;;;;;16.08;54.57;97295.84;6972876;28;20619;-79
2023/01/15 05:24:52;;;;;;;1.57;1.47;;;;;;;16.32;53.92;97301.47;6973104;28;20195;-79
2023/01/15 05:28:13;;;;;;;0.80;0.80;;;;;;;16.21;54.29;97317.00;6974331;28;20538;-79
2023/01/15 05:31:35;;;;;;;1.23;0.90;;;;;;;16.34;54.20;97313.69;6979175;28;20345;-80
2023/01/15 05:34:58;;;;;;;0.93;0.93;;;;;;;16.56;54.30;97371.31;6976618;28;20348;-80
2023/01/15 05:38:19;;;;;;;2.73;1.00;;;;;;;14.98;59.03;97409.06;6973666;28;20263;-80
2023/01/15 05:41:50;;;;;;;1.43;1.20;;;;;;;14.15;62.71;97433.56;6973835;28;20203;-80
2023/01/15 05:45:11;;;;;;;1.40;1.07;;;;;;;14.65;61.72;97426.56;6973519;28;20277;-80
2023/01/15 05:48:33;;;;;;;1.13;1.03;;;;;;;14.49;61.91;97419.44;6975559;28;20295;-81
2023/01/15 05:51:55;;;;;;;1.10;1.10;;;;;;;13.79;62.52;97428.94;6978753;28;20261;-80
2023/01/15 05:55:17;;;;;;;1.30;1.30;;;;;;;14.31;62.26;97433.44;6978466;28;20213;-80
2023/01/15 05:58:39;;;;;;;1.33;1.27;;;;;;;14.48;61.99;97435.97;6978830;28;20241;-80
2023/01/15 06:02:00;;;;;;;1.20;1.20;;;;;;;13.30;64.15;97436.34;6979324;28;20202;-79
2023/01/15 06:05:22;;;;;;;1.27;1.10;;;;;;;13.55;63.93;97449.31;6985565;28;20296;-80
2023/01/15 06:08:45;;;;;;;1.33;1.33;;;;;;;13.20;63.59;97478.72;6986364;28;20307;-80
2023/01/15 06:12:07;;;;;;;1.50;1.40;;;;;;;13.31;63.16;97462.34;6979843;28;20348;-79
2023/01/15 06:15:28;;;;;;;1.30;1.30;;;;;;;12.81;64.57;97466.31;6978150;28;20251;-80
2023/01/15 06:18:50;;;;;;;1.40;1.40;;;;;;;12.74;64.25;97473.81;6978415;28;20270;-80
2023/01/15 06:22:12;;;;;;;1.60;1.60;;;;;;;13.22;63.19;97474.69;6976983;28;20348;-80
2023/01/15 06:25:35;;;;;;;2.20;1.40;;;;;;;13.40;62.57;97473.53;6977837;28;20221;-80
2023/01/15 06:28:57;;;;;;;1.70;1.60;;;;;;;13.53;61.79;97483.94;6978463;28;20230;-79
2023/01/15 06:32:18;;;;;;;1.50;1.50;;;;;;;13.34;62.03;97491.59;6978075;28;20202;-80
2023/01/15 06:35:40;;;;;;;1.73;1.63;;;;;;;12.97;62.03;97478.97;6977258;28;20234;-79
2023/01/15 06:39:01;;;;;;;1.80;1.70;;;;;;;13.04;61.78;97507.47;6977818;28;20232;-80
2023/01/15 06:49:42;;;;;;;1.60;1.50;;;;;;;12.87;60.93;97522.13;6977239;28;20183;-80
2023/01/15 06:53:04;;;;;;;1.67;1.57;;;;;;;12.60;61.50;97550.94;6953725;28;20259;-79
2023/01/15 06:56:25;;;;;;;2.43;1.60;;;;;;;12.45;62.80;97570.44;6948328;28;20318;-80
2023/01/15 06:59:49;;;;;;;1.47;1.47;;;;;;;12.50;62.12;97550.75;6947873;28;20204;-80
2023/01/15 07:03:13;;;;;;;2.00;1.90;;;;;;;12.52;61.74;97575.69;6949719;28;20214;-79
2023/01/15 07:06:34;;;;;;;1.50;1.40;;;;;;;11.96;62.38;97587.44;6949246;28;20325;-79
2023/01/15 07:09:56;;;;;;;1.40;1.40;;;;;;;11.86;62.67;97597.25;6950542;28;20203;-79
2023/01/15 07:13:17;;;;;;;1.30;1.30;;;;;;;11.88;62.70;97616.72;6950603;28;20274;-78
2023/01/15 07:16:40;;;;;;;1.30;1.30;;;;;;;11.52;63.87;97619.78;6950081;28;20290;-78
2023/01/15 07:20:02;;;;;;;1.10;1.10;;;;;;;11.45;62.72;97627.19;6956998;28;20203;-79
2023/01/15 07:23:24;;;;;;;1.20;1.20;;;;;;;11.26;62.07;97642.72;6950751;28;20286;-79
2023/01/15 07:26:46;;;;;;;1.33;1.33;;;;;;;11.47;62.17;97652.06;6949804;28;20234;-79
2023/01/15 07:30:08;;;;;;;1.23;1.23;;;;;;;11.65;61.29;97654.63;6951128;28;20270;-79
2023/01/15 07:33:31;;;;;;;1.30;1.30;;;;;;;11.48;60.81;97624.00;6951197;28;20251;-79
2023/01/15 07:36:53;;;;;;;1.10;1.10;;;;;;;11.72;60.33;97669.63;6951064;28;20223;-79
2023/01/15 07:40:15;;;;;;;1.33;1.33;;;;;;;11.63;60.42;97665.66;6951318;28;20280;-79
2023/01/15 07:50:58;;;;;;;1.57;1.57;;;;;;;11.35;61.13;97675.56;6949917;28;20278;-79
2023/01/15 07:54:20;;;;;;;1.30;1.30;;;;;;;10.90;61.77;97674.53;6949152;28;20275;-79
2023/01/15 07:57:42;;;;;;;1.20;1.20;;;;;;;10.43;62.69;97665.59;6949750;28;20577;-79
2023/01/15 08:01:03;;;;;;;1.70;1.60;;;;;;;11.33;61.60;97699.28;6969022;28;20292;-80
2023/01/15 08:04:25;;;;;;;1.53;1.47;;;;;;;11.47;60.81;97708.75;6976551;28;20293;-80
2023/01/15 08:07:48;;;;;;;1.80;1.70;;;;;;;11.52;60.16;97727.75;6977123;28;20319;-80
2023/01/15 08:18:27;;;;;;;2.10;2.00;;;;;;;11.56;60.67;97721.63;6976843;28;20182;-80
2023/01/15 08:21:49;;;;;;;2.77;2.00;;;;;;;11.79;60.16;97737.81;6975906;28;20677;-80
2023/01/15 08:25:18;;;;;;;2.50;2.30;;;;;;;11.71;60.05;97738.19;6975050;28;20241;-80
2023/01/15 08:28:39;;;;;;;2.30;2.10;;;;;;;11.06;60.96;97733.16;6976060;28;20697;-80
2023/01/15 08:32:01;;;;;;;1.47;1.47;;;;;;;11.11;61.04;97741.38;6976311;28;20213;-79
2023/01/15 08:35:22;;;;;;;2.87;1.60;;;;;;;11.00;60.55;97707.13;6975331;28;20296;-80
2023/01/15 08:38:44;;;;;;;1.30;1.30;;;;;;;11.01;60.49;97693.41;6976027;28;20300;-80
2023/01/15 08:42:07;;;;;;;1.70;1.60;;;;;;;11.21;60.20;97771.31;6977160;28;20266;-80
2023/01/15 08:45:28;;;;;;;1.27;1.27;;;;;;;11.11;60.21;97771.03;6976743;28;20230;-80
2023/01/15 08:48:50;;;;;;;1.50;1.40;;;;;;;11.22;59.56;97792.63;6977057;28;20323;-80
2023/01/15 08:52:11;;;;;;;1.63;1.53;;;;;;;11.00;59.82;97796.13;6965407;28;20312;-79
2023/01/15 08:55:33;;;;;;;1.30;1.30;;;;;;;10.88;59.65;97816.84;6947457;28;20230;-80
2023/01/15 08:58:56;;;;;;;2.23;2.03;;;;;;;10.89;61.30;97823.88;6947990;28;20203;-80
2023/01/15 09:02:17;;;;;;;1.53;1.50;;;;;;;10.57;60.62;97804.44;6948560;28;20274;-80
2023/01/15 09:05:39;;;;;;;1.73;1.63;;;;;;;10.85;60.24;97822.69;6947902;28;20690;-80
2023/01/15 09:09:00;;;;;;;2.07;1.87;;;;;;;11.16;58.75;97833.22;6948573;28;20296;-80
2023/01/15 09:12:25;;;;;;;2.10;1.90;;;;;;;11.30;59.11;97845.44;6970377;28;20936;-80
2023/01/15 09:15:48;;;;;;;2.10;1.80;;;;;;;10.92;60.48;97850.41;6975778;28;20324;-80
2023/01/15 09:19:10;;;;;;;2.87;2.60;;;;;;;10.76;60.04;97818.69;6975932;28;20282;-80
2023/01/15 09:22:33;;;;;;;1.77;1.67;;;;;;;11.09;59.97;97846.78;6975249;28;20285;-80
2023/01/15 09:25:56;;;;;;;3.33;2.77;;;;;;;11.24;59.03;97838.25;6973174;28;20289;-80
2023/01/15 09:29:17;;;;;;;1.90;1.80;;;;;;;11.17;58.95;97826.75;6954351;28;20576;-80
2023/01/15 09:32:40;;;;;;;2.10;2.00;;;;;;;11.40;58.85;97849.19;6978982;28;20256;-80
2023/01/15 09:36:02;;;;;;;3.77;2.80;;;;;;;11.60;58.51;97862.38;6981051;28;20424;-80
2023/01/15 09:39:23;;;;;;;2.43;2.23;;;;;;;11.35;58.82;97877.94;6981877;28;20352;-80
2023/01/15 09:42:49;;;;;;;2.90;2.70;;;;;;;11.22;59.06;97870.06;6974220;28;20747;-79
2023/01/15 09:46:14;;;;;;;2.70;2.50;;;;;;;10.98;59.77;97887.25;6953290;28;20385;-80
2023/01/15 09:49:54;;;;;;;2.27;2.17;;;;;;;10.93;59.96;97871.72;6954500;28;20250;-80
2023/01/15 09:53:29;;;;;;;2.63;2.37;;;;;;;11.12;59.56;97876.03;6955096;28;20279;-80
2023/01/15 09:56:51;;;;;;;1.93;1.83;;;;;;;11.45;58.95;97894.38;6953754;28;20317;-80
2023/01/15 10:00:18;;;;;;;2.10;2.00;;;;;;;10.56;58.57;97805.50;6955315;28;20353;-80
2023/01/15 10:03:43;;;;;;;3.20;3.00;;;;;;;10.78;59.96;97892.91;6955466;28;20569;-80
2023/01/15 10:07:17;;;;;;;3.90;3.50;;;;;;;11.37;58.93;97895.53;6954848;28;20226;-80
2023/01/15 10:10:44;;;;;;;9.00;7.40;;;;;;;11.14;58.88;97875.78;6955551;28;20580;-80
2023/01/15 10:14:10;;;;;;;3.03;2.83;;;;;;;11.21;58.35;97895.41;6955616;28;20207;-80
2023/01/15 10:17:38;;;;;;;3.57;3.27;;;;;;;11.04;58.98;97875.53;6955939;28;20302;-79
2023/01/15 10:21:07;;;;;;;2.40;2.20;;;;;;;10.82;59.90;97910.28;6955295;28;20226;-79
2023/01/15 10:24:35;;;;;;;2.00;1.90;;;;;;;10.34;59.74;97912.13;6956175;28;20245;-79
2023/01/15 10:27:57;;;;;;;2.60;2.40;;;;;;;10.66;59.05;97894.72;6970437;28;20258;-80
2023/01/15 10:31:20;;;;;;;678.87;268.93;;;;;;;10.97;59.31;97923.31;6973151;28;20195;-80
2023/01/15 10:35:04;;;;;;;36.13;18.57;;;;;;;11.04;58.25;97892.53;6961491;28;20349;-85
2023/01/15 10:38:29;;;;;;;13.33;6.93;;;;;;;11.51;58.40;97948.25;6953538;28;20357;-80
2023/01/15 10:42:00;;;;;;;5.77;4.40;;;;;;;11.48;59.25;97945.19;6953740;28;20282;-84
2023/01/15 10:45:24;;;;;;;17.33;7.77;;;;;;;11.81;57.53;97959.03;6953192;28;20226;-84
2023/01/15 10:48:48;;;;;;;23.83;9.00;;;;;;;11.27;58.76;97960.03;6977903;28;20309;-80
2023/01/15 10:52:19;;;;;;;32.67;13.00;;;;;;;11.65;58.07;97965.09;6980104;28;20285;-80
2023/01/15 10:55:42;;;;;;;4.47;3.67;;;;;;;11.34;57.29;97966.16;6979672;28;20285;-80
2023/01/15 10:59:13;;;;;;;1.83;1.73;;;;;;;10.08;59.21;97968.97;6980353;28;20641;-80
2023/01/15 11:02:38;;;;;;;2.60;2.40;;;;;;;10.40;58.50;97991.25;6980215;28;20296;-80
2023/01/15 11:06:00;;;;;;;2.63;2.43;;;;;;;10.11;58.89;97989.25;6978434;28;20227;-80
2023/01/15 11:09:29;;;;;;;3.83;2.90;;;;;;;10.00;59.01;97995.34;6978720;28;20233;-80
2023/01/15 11:20:25;;;;;;;1.30;1.30;;;;;;;9.54;59.58;98000.25;6977206;28;20187;-80
2023/01/15 11:23:48;;;;;;;1.90;1.80;;;;;;;8.88;61.12;98006.22;6978395;28;20328;-79
2023/01/15 11:27:15;;;;;;;1.60;1.60;;;;;;;8.89;60.59;98032.09;6978190;28;20319;-80
2023/01/15 11:30:38;;;;;;;1.40;1.40;;;;;;;8.25;60.02;98013.25;6979756;28;20265;-79
2023/01/15 11:34:01;;;;;;;1.80;1.70;;;;;;;9.04;60.33;98053.09;6979095;28;20229;-80
2023/01/15 11:37:23;;;;;;;1.73;1.70;;;;;;;8.46;59.59;98022.91;6978589;28;20289;-80
2023/01/15 11:40:51;;;;;;;1.90;1.80;;;;;;;8.32;61.23;98070.47;6978137;28;20715;-79
2023/01/15 11:51:41;;;;;;;1.60;1.60;;;;;;;8.85;60.80;98076.56;6970154;28;20214;-79
2023/01/15 11:55:03;;;;;;;2.33;2.10;;;;;;;9.46;58.78;98065.09;6975651;28;20206;-80
2023/01/15 11:58:26;;;;;;;1.70;1.67;;;;;;;9.17;58.59;98062.97;6977161;28;20228;-79
2023/01/15 12:01:53;;;;;;;2.00;1.90;;;;;;;9.51;58.12;98071.47;6976599;28;20214;-79
2023/01/15 12:05:16;;;;;;;3.10;2.90;;;;;;;8.91;59.05;98009.31;6975887;28;20190;-79
2023/01/15 12:08:49;;;;;;;1.63;1.63;;;;;;;8.74;59.64;98050.34;6977800;28;20313;-79
2023/01/15 12:12:19;;;;;;;1.90;1.80;;;;;;;9.18;58.73;98067.31;6978029;28;20248;-79
2023/01/15 12:15:50;;;;;;;1.80;1.70;;;;;;;9.55;57.46;98069.16;6976882;28;20367;-79
2023/01/15 12:19:18;;;;;;;1.90;1.80;;;;;;;9.58;57.59;98080.31;6978506;28;20194;-79
2023/01/15 12:22:53;;;;;;;1.53;1.40;;;;;;;9.60;56.65;98075.56;6977053;28;20276;-79
2023/01/15 12:26:20;;;;;;;1.70;1.70;;;;;;;9.54;57.22;98084.50;6956990;28;20319;-79
2023/01/15 12:29:45;;;;;;;3.10;2.80;;;;;;;9.83;56.05;98080.38;6949571;28;20319;-79
2023/01/15 12:33:16;;;;;;;2.90;2.23;;;;;;;9.54;56.63;98064.84;6949750;28;20303;-79
2023/01/15 12:36:41;;;;;;;2.20;2.00;;;;;;;9.71;55.82;98082.97;6948219;28;20229;-79
2023/01/15 12:40:19;;;;;;;1.87;1.80;;;;;;;9.37;56.02;98058.31;6949242;28;20273;-79
2023/01/15 12:47:25;;;;;;;2.43;1.50;;;;;;;9.34;56.06;98066.84;6975610;28;20320;-79
2023/01/15 12:50:48;;;;;;;1.37;1.37;;;;;;;9.57;54.76;98057.16;6975025;28;20285;-79
2023/01/15 12:54:12;;;;;;;1.33;1.33;;;;;;;9.54;54.52;98065.69;6976187;28;20293;-79
2023/01/15 12:57:35;;;;;;;5.27;3.97;;;;;;;9.75;54.66;98051.84;6976310;28;20327;-80
2023/01/15 13:01:04;;;;;;;1.50;1.50;;;;;;;10.19;52.85;98065.22;6961657;28;20316;-80
2023/01/15 13:04:32;;;;;;;1.83;1.73;;;;;;;9.85;54.53;98081.81;6977850;28;20231;-80
2023/01/15 13:07:57;;;;;;;1.70;1.60;;;;;;;9.47;53.99;98026.41;6978372;28;20363;-79
2023/01/15 13:11:18;;;;;;;1.80;1.70;;;;;;;9.62;53.94;98094.19;6968717;28;20327;-80
2023/01/15 13:14:40;;;;;;;2.20;1.87;;;;;;;9.72;53.98;98073.00;6977024;28;20230;-80
2023/01/15 13:18:07;;;;;;;1.60;1.60;;;;;;;9.65;54.27;98048.00;6979994;28;20687;-80
2023/01/15 13:21:30;;;;;;;1.90;1.80;;;;;;;9.73;53.71;98067.41;6977056;28;20297;-80
2023/01/15 13:25:05;;;;;;;1.67;1.60;;;;;;;10.52;52.43;98099.94;6978041;28;20293;-80
2023/01/15 13:28:39;;;;;;;1.90;1.70;;;;;;;10.21;52.57;98100.84;6978859;28;20237;-80
2023/01/15 13:32:05;;;;;;;1.80;1.70;;;;;;;9.64;53.43;98073.28;6978426;28;20655;-81
2023/01/15 13:35:30;;;;;;;1.57;1.50;;;;;;;10.21;53.25;98116.19;6977102;28;20248;-80
2023/01/15 13:38:54;;;;;;;1.90;1.80;;;;;;;10.58;51.36;98113.34;6977360;28;20229;-80
2023/01/15 13:42:31;;;;;;;1.60;1.50;;;;;;;10.43;52.67;98120.97;6950934;28;20215;-80
2023/01/15 13:45:53;;;;;;;1.70;1.60;;;;;;;10.61;52.16;98115.63;6950557;28;20327;-80
2023/01/15 13:49:18;;;;;;;2.03;1.83;;;;;;;10.22;52.73;98080.94;6951061;28;20318;-80
2023/01/15 13:52:41;;;;;;;1.60;1.50;;;;;;;10.25;53.30;98098.53;6951995;28;20329;-79
2023/01/15 13:56:05;;;;;;;1.70;1.60;;;;;;;10.05;53.36;98122.91;6967543;28;20313;-80
2023/01/15 13:59:42;;;;;;;1.60;1.50;;;;;;;10.57;52.51;98121.69;6978809;28;20264;-80
2023/01/15 14:03:24;;;;;;;1.80;1.70;;;;;;;10.58;52.40;98134.91;6978878;28;20220;-80
2023/01/15 14:06:48;;;;;;;2.23;2.00;;;;;;;10.29;52.87;98137.47;6978565;28;20770;-80
2023/01/15 14:10:24;;;;;;;2.30;2.10;;;;;;;9.99;53.30;98139.09;6981666;28;20317;-79
2023/01/15 14:14:22;;;;;;;1.70;1.60;;;;;;;9.74;54.18;98144.41;6984065;28;20291;-79
2023/01/15 14:18:04;;;;;;;1.90;1.80;;;;;;;10.56;51.47;98131.63;6950816;28;20287;-80
2023/01/15 14:21:34;;;;;;;1.70;1.60;;;;;;;9.64;52.96;98092.13;6982565;28;20203;-79
2023/01/15 14:25:14;;;;;;;1.80;1.70;;;;;;;10.06;53.15;98129.13;6983537;28;20292;-80
2023/01/15 14:28:46;;;;;;;2.90;1.80;;;;;;;10.51;52.77;98141.44;6984492;28;20321;-80
2023/01/15 14:32:11;;;;;;;3.90;2.20;;;;;;;10.32;53.14;98118.16;6984102;28;20206;-80
2023/01/15 14:35:37;;;;;;;1.70;1.60;;;;;;;11.05;50.50;98119.94;6984540;28;20284;-79
2023/01/15 14:39:00;;;;;;;5.40;2.10;;;;;;;10.66;51.84;98137.34;6984073;28;20297;-79
2023/01/15 14:46:14;;;;;;;2.10;1.90;;;;;;;10.31;51.63;98149.66;6983571;28;20225;-79
2023/01/15 14:49:48;;;;;;;2.17;1.80;;;;;;;10.35;51.42;98139.28;6984097;28;20233;-79
2023/01/15 14:53:31;;;;;;;2.63;1.90;;;;;;;9.83;51.88;98123.47;6992134;28;20179;-79
2023/01/15 14:56:55;;;;;;;3.53;2.30;;;;;;;10.38;50.78;98136.13;6985106;28;20226;-79
2023/01/15 15:00:19;;;;;;;3.73;2.20;;;;;;;10.48;49.84;98133.75;6992067;28;20202;-79
2023/01/15 15:03:46;;;;;;;2.50;2.30;;;;;;;10.49;49.85;98130.84;6984587;28;20210;-80
2023/01/15 15:07:12;;;;;;;5.73;2.40;;;;;;;10.22;50.29;98144.78;6977214;28;20365;-80
2023/01/15 15:10:36;;;;;;;2.03;1.90;;;;;;;10.51;49.91;98111.78;6978513;28;20265;-80
2023/01/15 15:14:00;;;;;;;2.17;1.90;;;;;;;10.80;49.29;98105.69;6978230;28;20306;-79
2023/01/15 15:17:31;;;;;;;3.80;2.77;;;;;;;10.95;49.27;98128.53;6977942;28;20316;-79
2023/01/15 15:20:55;;;;;;;2.97;2.00;;;;;;;10.46;49.55;98117.00;6977506;28;20209;-79
2023/01/15 15:24:20;;;;;;;4.17;2.97;;;;;;;11.00;48.81;98150.28;6979246;28;20187;-79
2023/01/15 15:27:41;;;;;;;3.07;1.83;;;;;;;10.01;50.88;98148.63;6979582;28;20237;-79
2023/01/15 15:31:03;;;;;;;2.40;1.90;;;;;;;10.14;51.05;98150.41;6979356;28;20963;-79
2023/01/15 15:34:28;;;;;;;2.83;2.60;;;;;;;10.34;50.81;98164.56;6978500;28;20208;-79
2023/01/15 15:37:49;;;;;;;2.63;1.93;;;;;;;10.36;49.84;98152.53;6978322;28;20228;-79
2023/01/15 15:41:12;;;;;;;2.10;1.90;;;;;;;10.60;49.56;98177.81;6978936;28;20341;-79
2023/01/15 15:51:58;;;;;;;2.23;1.90;;;;;;;9.95;50.90;98176.41;6974187;28;20572;-80
2023/01/15 15:55:21;;;;;;;2.53;1.83;;;;;;;9.93;50.70;98165.00;6976516;28;20292;-79
2023/01/15 15:58:43;;;;;;;2.40;1.90;;;;;;;9.53;51.33;98168.13;6977466;28;20241;-78
2023/01/15 16:02:15;;;;;;;2.80;2.13;;;;;;;9.74;50.91;98147.13;6968289;28;20298;-78
2023/01/15 16:05:37;;;;;;;2.33;2.03;;;;;;;9.42;51.88;98141.91;6973223;28;20297;-81
2023/01/15 16:09:03;;;;;;;2.13;2.03;;;;;;;9.78;51.11;98145.66;6976723;28;20367;-81
2023/01/15 16:12:26;;;;;;;3.20;2.03;;;;;;;10.19;49.93;98148.72;6979286;28;20216;-81
2023/01/15 16:15:52;;;;;;;3.33;1.90;;;;;;;9.69;50.70;98144.22;6979163;28;20728;-80
2023/01/15 16:19:17;;;;;;;4.80;2.80;;;;;;;9.94;49.61;98123.59;6976312;28;20198;-80
2023/01/15 16:22:44;;;;;;;2.53;2.33;;;;;;;9.84;51.57;98122.41;6975172;28;20281;-80
2023/01/15 16:26:11;;;;;;;1.97;1.80;;;;;;;9.87;50.20;98130.06;6975738;28;20231;-80
2023/01/15 16:29:33;;;;;;;2.13;2.00;;;;;;;9.91;49.34;98131.25;6973325;28;20309;-79
2023/01/15 16:32:59;;;;;;;4.20;1.80;;;;;;;9.09;51.87;98133.97;6973148;28;20203;-80
2023/01/15 16:36:21;;;;;;;5.03;3.13;;;;;;;9.53;50.63;98114.31;6975591;28;20307;-80
2023/01/15 16:39:45;;;;;;;3.80;3.27;;;;;;;9.38;50.32;98097.63;6974991;28;20590;-81
2023/01/15 16:43:10;;;;;;;2.27;2.03;;;;;;;9.01;51.16;98122.59;6974920;28;20332;-81
2023/01/15 16:46:33;;;;;;;3.53;2.30;;;;;;;9.19;50.86;98123.59;6973558;28;20714;-82
2023/01/15 16:50:32;;;;;;;1.93;1.83;;;;;;;8.91;50.80;98089.16;6975320;28;20293;-80
2023/01/15 16:53:54;;;;;;;2.07;1.97;;;;;;;9.63;49.83;98112.81;6975373;28;20347;-81
2023/01/15 16:57:28;;;;;;;1.90;1.80;;;;;;;9.37;49.16;98096.81;6974739;28;20296;-81
2023/01/15 17:00:54;;;;;;;1.83;1.73;;;;;;;9.24;50.31;98118.41;6974367;28;20202;-80
2023/01/15 17:04:19;;;;;;;2.83;2.53;;;;;;;9.26;50.36;98105.56;6979514;28;20207;-83
2023/01/15 17:07:41;;;;;;;2.73;2.07;;;;;;;9.00;50.43;98112.91;6997987;28;20226;-82